Time;durP1;ratioP1;P1;durP2;ratioP2;P2;SDS_P1;SDS_P2;PMS_P1;PMS_P2;Temp;Humidity;BMP_temperature;BMP_pressure;BME280_temperature;BME280_humidity;BME280_pressure;Samples;Min_cycle;Max_cycle;Signal;HPM_P1;HPM_P2
2022/02/06 00:00:31;;;;;;;2.83;0.53;;;1.80;99.90;;;;;;6277305;22;20006;-86
2022/02/06 00:02:58;;;;;;;2.33;0.60;;;1.80;99.90;;;;;;6275766;22;20000;-86
2022/02/06 00:05:24;;;;;;;1.43;0.40;;;1.80;99.90;;;;;;6249879;22;20053;-86
2022/02/06 00:07:50;;;;;;;4.63;1.63;;;1.70;99.90;;;;;;6277435;22;20079;-86
2022/02/06 00:10:17;;;;;;;2.27;0.67;;;1.70;99.90;;;;;;6276991;22;20414;-86
2022/02/06 00:12:42;;;;;;;2.30;0.50;;;1.70;99.90;;;;;;6276770;22;20441;-86
2022/02/06 00:15:09;;;;;;;1.63;0.57;;;1.70;99.90;;;;;;6278501;22;20008;-85
2022/02/06 00:17:34;;;;;;;1.97;0.60;;;1.70;99.90;;;;;;6278824;22;20008;-85
2022/02/06 00:20:01;;;;;;;1.70;0.50;;;1.70;99.90;;;;;;6277024;22;20069;-86
2022/02/06 00:22:37;;;;;;;0.73;0.27;;;1.70;99.90;;;;;;6250749;22;20011;-86
2022/02/06 00:30:36;;;;;;;2.58;0.60;;;1.70;99.90;;;;;;6247699;22;19999;-86
2022/02/06 00:33:06;;;;;;;2.00;0.60;;;1.80;99.90;;;;;;6277885;22;20000;-85
2022/02/06 00:43:14;;;;;;;3.93;0.70;;;1.80;99.90;;;;;;6278935;22;20003;-86
2022/02/06 00:45:39;;;;;;;4.67;1.50;;;1.80;99.90;;;;;;6277780;22;20059;-85
2022/02/06 00:48:05;;;;;;;3.40;0.40;;;1.80;99.90;;;;;;6277104;22;20033;-85
2022/02/06 00:50:33;;;;;;;1.47;0.50;;;1.80;99.90;;;;;;6276272;22;20030;-85
2022/02/06 00:53:08;;;;;;;0.77;0.30;;;1.80;99.90;;;;;;6276871;22;20012;-85
2022/02/06 00:55:34;;;;;;;6.13;0.40;;;1.80;99.90;;;;;;6279015;22;20003;-85
2022/02/06 00:58:00;;;;;;;2.20;0.60;;;1.80;99.90;;;;;;6278441;22;20004;-85
2022/02/06 01:00:26;;;;;;;2.83;0.40;;;1.80;99.90;;;;;;6276543;22;20423;-85
2022/02/06 01:02:52;;;;;;;2.77;0.60;;;1.90;99.90;;;;;;6278513;22;19996;-85
2022/02/06 01:05:18;;;;;;;2.00;0.40;;;1.90;99.90;;;;;;6278567;22;20010;-85
2022/02/06 01:07:43;;;;;;;1.33;0.60;;;2.00;99.90;;;;;;6251214;22;20199;-85
2022/02/06 01:10:10;;;;;;;5.27;0.57;;;1.90;99.90;;;;;;6276996;22;20078;-85
2022/02/06 01:12:38;;;;;;;1.30;0.40;;;2.00;99.90;;;;;;6277133;22;20120;-85
2022/02/06 01:15:12;;;;;;;3.70;0.43;;;2.00;99.90;;;;;;6276885;22;20334;-85
2022/02/06 01:17:47;;;;;;;0.40;0.17;;;2.00;99.90;;;;;;6277184;22;20051;-85
2022/02/06 01:20:18;;;;;;;3.20;0.70;;;2.00;99.90;;;;;;6276464;22;20003;-84
2022/02/06 01:23:05;;;;;;;1.27;0.30;;;2.10;99.90;;;;;;6251578;22;19999;-85
2022/02/06 01:25:43;;;;;;;1.97;0.37;;;2.10;99.90;;;;;;6276821;22;20015;-84
2022/02/06 01:28:13;;;;;;;0.70;0.20;;;2.10;99.90;;;;;;6277429;22;19995;-85
2022/02/06 01:30:51;;;;;;;1.13;0.50;;;2.20;99.90;;;;;;6276673;22;20004;-85
2022/02/06 01:33:23;;;;;;;1.10;0.27;;;2.20;99.90;;;;;;6250744;22;20016;-85
2022/02/06 01:35:58;;;;;;;0.75;0.22;;;2.20;99.90;;;;;;6276568;22;20327;-85
2022/02/06 01:38:34;;;;;;;4.93;0.50;;;2.20;99.90;;;;;;6278268;22;20000;-85
2022/02/06 01:41:08;;;;;;;0.90;0.30;;;2.20;99.90;;;;;;6276813;22;20003;-85
2022/02/06 01:43:43;;;;;;;0.60;0.20;;;2.30;99.90;;;;;;6278442;22;20079;-85
2022/02/06 02:23:29;;;;;;;3.55;0.57;;;2.30;99.90;;;;;;6289429;22;20003;-85
2022/02/06 02:32:26;;;;;;;1.80;0.50;;;2.30;99.90;;;;;;6277049;22;20033;-85
2022/02/06 02:47:53;;;;;;;6.50;0.60;;;2.40;99.90;;;;;;6278311;22;20061;-84
2022/02/06 02:50:22;;;;;;;1.50;0.37;;;2.40;99.90;;;;;;6277113;22;19999;-84
2022/02/06 03:03:39;;;;;;;2.57;0.37;;;2.40;99.90;;;;;;6277611;22;20046;-85
2022/02/06 03:06:06;;;;;;;3.07;0.57;;;2.40;99.90;;;;;;6276032;22;20346;-85
2022/02/06 03:08:34;;;;;;;1.57;0.47;;;2.50;99.90;;;;;;6274959;22;20560;-85
2022/02/06 03:11:04;;;;;;;2.03;0.20;;;2.40;99.90;;;;;;6274458;22;20448;-86
2022/02/06 03:13:41;;;;;;;2.73;0.70;;;2.40;99.90;;;;;;6274954;22;20491;-85
2022/02/06 03:21:23;;;;;;;1.43;0.33;;;2.50;99.90;;;;;;6277326;22;20004;-85
2022/02/06 03:23:55;;;;;;;2.70;0.40;;;2.50;99.90;;;;;;6277579;22;19996;-85
2022/02/06 03:26:22;;;;;;;1.25;0.35;;;2.50;99.90;;;;;;6275905;22;20465;-85
2022/02/06 03:28:49;;;;;;;2.10;0.23;;;2.50;99.90;;;;;;6274951;22;20014;-85
2022/02/06 03:31:16;;;;;;;3.17;0.47;;;2.50;99.90;;;;;;6276856;22;19995;-85
2022/02/06 03:33:42;;;;;;;0.57;0.13;;;2.50;99.90;;;;;;6274941;22;20011;-85
2022/02/06 03:36:08;;;;;;;1.73;0.27;;;2.50;99.90;;;;;;6249833;22;20007;-86
2022/02/06 03:38:34;;;;;;;3.90;0.50;;;2.50;99.90;;;;;;6276501;22;19996;-85
2022/02/06 03:41:07;;;;;;;5.43;0.50;;;2.50;99.90;;;;;;6276342;22;20064;-85
2022/02/06 03:43:50;;;;;;;1.23;0.20;;;2.50;99.90;;;;;;6276247;22;20052;-86
2022/02/06 03:46:25;;;;;;;2.13;0.40;;;2.50;99.90;;;;;;6275515;22;20077;-86
2022/02/06 03:51:33;;;;;;;2.23;0.30;;;2.50;99.90;;;;;;6289084;22;20077;-85
2022/02/06 03:54:00;;;;;;;2.93;0.40;;;2.50;99.90;;;;;;6276849;22;20083;-85
2022/02/06 03:56:28;;;;;;;2.90;0.50;;;2.60;99.90;;;;;;6251004;22;20055;-85
2022/02/06 03:58:54;;;;;;;1.47;0.40;;;2.60;99.90;;;;;;6277414;22;20446;-86
2022/02/06 04:01:19;;;;;;;1.73;0.27;;;2.60;99.90;;;;;;6276732;22;20056;-85
2022/02/06 04:03:45;;;;;;;4.70;0.60;;;2.70;99.90;;;;;;6277283;22;20007;-85
2022/02/06 04:06:11;;;;;;;1.30;0.30;;;2.70;99.90;;;;;;6279067;22;20007;-85
2022/02/06 04:08:38;;;;;;;1.80;0.40;;;2.80;99.90;;;;;;6278496;22;20453;-85
2022/02/06 04:11:08;;;;;;;2.83;0.50;;;2.80;99.90;;;;;;6252031;22;20061;-85
2022/02/06 04:13:39;;;;;;;3.03;0.50;;;2.90;99.90;;;;;;6277687;22;20040;-85
2022/02/06 04:16:12;;;;;;;2.03;0.70;;;2.90;99.90;;;;;;6273037;22;20006;-85
2022/02/06 04:18:50;;;;;;;3.23;0.63;;;2.90;99.90;;;;;;6278133;22;20002;-85
2022/02/06 04:21:15;;;;;;;2.40;0.40;;;2.90;99.90;;;;;;6278685;22;20342;-85
2022/02/06 04:23:41;;;;;;;2.17;0.50;;;2.90;99.90;;;;;;6278967;22;20000;-85
2022/02/06 04:26:06;;;;;;;3.93;0.30;;;2.90;99.90;;;;;;6269299;22;20004;-82
2022/02/06 04:28:33;;;;;;;1.17;0.40;;;2.90;99.90;;;;;;6188508;23;20040;-84
2022/02/06 04:30:58;;;;;;;1.57;0.30;;;2.90;99.90;;;;;;6191153;23;20027;-85
2022/02/06 04:33:24;;;;;;;1.73;0.30;;;2.90;99.90;;;;;;6191294;23;20338;-85
2022/02/06 04:35:53;;;;;;;2.17;0.50;;;2.90;99.90;;;;;;6189544;23;20136;-83
2022/02/06 04:54:31;;;;;;;2.70;0.53;;;3.20;99.90;;;;;;6199156;23;20047;-85
2022/02/06 05:21:29;;;;;;;0.47;0.10;;;3.30;99.90;;;;;;6194256;23;20083;-85
2022/02/06 05:26:41;;;;;;;4.30;0.80;;;3.20;99.90;;;;;;6192425;23;20013;-85
2022/02/06 05:29:35;;;;;;;3.53;0.60;;;3.30;99.90;;;;;;6184460;23;20158;-85
2022/02/06 05:32:24;;;;;;;1.53;0.50;;;3.30;99.90;;;;;;6183036;23;20008;-85
2022/02/06 05:34:50;;;;;;;0.20;0.20;;;3.30;99.90;;;;;;6158504;23;19997;-84
2022/02/06 05:37:16;;;;;;;2.73;0.43;;;3.30;99.90;;;;;;6158672;23;20009;-85
2022/02/06 05:39:41;;;;;;;1.03;0.20;;;3.40;99.90;;;;;;6158121;23;20005;-85
2022/02/06 05:42:07;;;;;;;0.60;0.20;;;3.30;99.90;;;;;;6158247;23;20031;-85
2022/02/06 05:44:35;;;;;;;4.53;0.50;;;3.40;99.90;;;;;;6158809;23;20009;-85
2022/02/06 05:47:01;;;;;;;1.43;0.40;;;3.40;99.90;;;;;;6158411;23;20031;-85
2022/02/06 05:49:27;;;;;;;2.67;0.20;;;3.40;99.90;;;;;;6158440;23;20502;-85
2022/02/06 05:51:52;;;;;;;2.07;0.30;;;3.30;99.90;;;;;;6157867;23;20040;-84
2022/02/06 05:54:18;;;;;;;0.50;0.10;;;3.30;99.90;;;;;;6159261;23;20012;-84
2022/02/06 05:56:44;;;;;;;2.50;0.50;;;3.40;99.90;;;;;;6185922;23;20001;-86
2022/02/06 05:59:09;;;;;;;2.90;0.27;;;3.40;99.90;;;;;;6160736;23;20012;-86
2022/02/06 06:01:35;;;;;;;2.03;0.40;;;3.40;99.90;;;;;;6159961;23;20076;-85
2022/02/06 06:04:00;;;;;;;2.63;0.40;;;3.40;99.90;;;;;;6186238;23;20004;-85
2022/02/06 06:06:26;;;;;;;0.77;0.30;;;3.40;99.90;;;;;;6159989;23;20005;-85
2022/02/06 06:08:52;;;;;;;1.70;0.50;;;3.40;99.90;;;;;;6159670;23;20009;-85
2022/02/06 06:11:17;;;;;;;3.00;0.30;;;3.50;99.90;;;;;;6159775;23;20002;-85
2022/02/06 06:13:43;;;;;;;1.47;0.20;;;3.50;99.90;;;;;;6160133;23;20104;-85
2022/02/06 06:16:09;;;;;;;1.83;0.30;;;3.50;99.90;;;;;;6185839;23;20419;-85
2022/02/06 06:18:36;;;;;;;0.60;0.30;;;3.50;99.90;;;;;;6159910;23;20016;-85
2022/02/06 06:21:03;;;;;;;1.60;0.27;;;3.60;99.90;;;;;;6184003;23;20008;-86
2022/02/06 06:23:28;;;;;;;2.20;0.23;;;3.60;99.90;;;;;;6186939;23;19997;-86
2022/02/06 06:25:54;;;;;;;0.80;0.10;;;3.60;99.90;;;;;;6186247;23;20037;-85
2022/02/06 06:28:20;;;;;;;0.93;0.30;;;3.60;99.90;;;;;;6213864;23;20013;-85
2022/02/06 06:30:45;;;;;;;0.73;0.23;;;3.60;99.90;;;;;;6213676;23;20051;-85
2022/02/06 06:33:11;;;;;;;0.83;0.30;;;3.60;99.90;;;;;;6214429;23;20004;-85
2022/02/06 06:35:39;;;;;;;3.60;0.50;;;3.60;99.90;;;;;;6216787;23;20004;-84
2022/02/06 06:38:04;;;;;;;4.33;0.70;;;3.60;99.90;;;;;;6214890;23;20015;-85
2022/02/06 06:40:30;;;;;;;1.63;0.60;;;3.60;99.90;;;;;;6215828;23;20001;-85
2022/02/06 06:42:57;;;;;;;1.83;0.40;;;3.60;99.90;;;;;;6213512;23;20316;-87
2022/02/06 06:45:23;;;;;;;0.20;0.20;;;3.70;99.90;;;;;;6216665;23;19997;-85
2022/02/06 06:47:52;;;;;;;1.23;0.10;;;3.70;99.90;;;;;;6217645;23;20480;-82
2022/02/06 06:50:18;;;;;;;0.60;0.40;;;3.70;99.90;;;;;;6236230;23;19988;-84
2022/02/06 06:52:46;;;;;;;0.73;0.20;;;3.70;99.90;;;;;;6236453;23;19992;-85
2022/02/06 06:55:15;;;;;;;1.07;0.90;;;3.70;99.90;;;;;;6235152;23;20000;-85
2022/02/06 06:57:44;;;;;;;1.40;0.37;;;3.70;99.90;;;;;;6234555;23;20008;-85
2022/02/06 07:00:36;;;;;;;1.07;0.07;;;3.70;99.90;;;;;;6234774;23;20470;-83
2022/02/06 07:03:02;;;;;;;1.80;0.40;;;3.80;99.90;;;;;;6237257;23;20257;-84
2022/02/06 07:05:27;;;;;;;2.17;0.30;;;3.80;99.90;;;;;;6237569;23;20051;-84
2022/02/06 07:07:54;;;;;;;4.07;0.57;;;3.70;99.90;;;;;;6236927;23;20050;-84
2022/02/06 07:10:23;;;;;;;1.07;0.27;;;3.80;99.90;;;;;;6225567;23;20080;-84
2022/02/06 07:12:49;;;;;;;2.47;0.40;;;3.80;99.90;;;;;;6215398;23;20099;-85
2022/02/06 07:15:15;;;;;;;3.20;0.33;;;3.80;99.90;;;;;;6213360;23;20035;-86
2022/02/06 07:17:43;;;;;;;2.90;0.33;;;3.80;99.90;;;;;;6212711;23;20442;-85
2022/02/06 07:20:09;;;;;;;2.77;0.30;;;3.80;99.90;;;;;;6213912;23;20107;-85
2022/02/06 07:22:36;;;;;;;0.93;0.30;;;3.90;99.90;;;;;;6213650;23;20011;-85
2022/02/06 07:25:04;;;;;;;3.00;0.40;;;3.90;99.90;;;;;;6229846;23;20011;-85
2022/02/06 07:27:33;;;;;;;0.40;0.10;;;3.90;99.90;;;;;;6214377;23;20035;-85
2022/02/06 07:30:04;;;;;;;2.00;0.27;;;4.00;99.90;;;;;;6203807;23;20001;-84
2022/02/06 07:32:31;;;;;;;2.57;0.50;;;4.00;99.90;;;;;;6176443;23;20012;-84
2022/02/06 07:34:57;;;;;;;2.27;0.40;;;4.00;99.90;;;;;;6201843;23;20088;-85
2022/02/06 07:37:22;;;;;;;1.63;0.40;;;4.00;99.90;;;;;;6171812;23;19989;-85
2022/02/06 07:39:48;;;;;;;1.60;0.30;;;4.00;99.90;;;;;;6171510;23;20005;-85
2022/02/06 07:42:14;;;;;;;1.20;0.30;;;4.00;99.90;;;;;;6174959;23;20024;-85
2022/02/06 07:44:42;;;;;;;2.57;0.40;;;4.10;99.90;;;;;;6186453;23;20495;-85
2022/02/06 07:47:18;;;;;;;2.43;0.40;;;4.10;99.90;;;;;;6198267;23;19997;-85
2022/02/06 07:49:48;;;;;;;1.60;0.40;;;4.10;99.90;;;;;;6194590;23;20462;-85
2022/02/06 07:52:15;;;;;;;2.83;0.33;;;4.10;99.90;;;;;;6159531;23;20012;-85
2022/02/06 07:54:41;;;;;;;1.77;0.27;;;4.20;99.90;;;;;;6185253;23;20001;-84
2022/02/06 07:57:13;;;;;;;1.67;0.30;;;4.20;99.90;;;;;;6159543;23;20009;-86
2022/02/06 07:59:38;;;;;;;4.60;0.43;;;4.20;99.90;;;;;;6183993;23;20096;-86
2022/02/06 08:02:09;;;;;;;1.73;0.33;;;4.30;99.90;;;;;;6185838;23;20502;-85
2022/02/06 08:04:35;;;;;;;3.00;0.63;;;4.30;99.90;;;;;;6185797;23;19997;-84
2022/02/06 08:07:02;;;;;;;3.23;0.40;;;4.30;99.90;;;;;;6185479;23;20059;-84
2022/02/06 08:09:50;;;;;;;1.80;0.30;;;4.40;99.90;;;;;;6159379;23;20438;-85
2022/02/06 08:12:25;;;;;;;0.37;0.20;;;4.40;99.90;;;;;;6159313;23;20315;-85
2022/02/06 08:14:54;;;;;;;2.97;0.37;;;4.40;99.90;;;;;;6185382;23;20008;-86
2022/02/06 08:17:23;;;;;;;0.43;0.10;;;4.50;99.90;;;;;;6159623;23;20435;-85
2022/02/06 08:19:49;;;;;;;2.17;0.27;;;4.50;99.90;;;;;;6160290;23;20005;-86
2022/02/06 08:22:15;;;;;;;1.13;0.30;;;4.60;99.90;;;;;;6160760;23;20080;-86
2022/02/06 08:24:41;;;;;;;1.17;0.20;;;4.40;99.90;;;;;;6160368;23;20012;-86
2022/02/06 08:27:07;;;;;;;1.67;0.30;;;4.50;99.90;;;;;;6187476;23;20637;-85
2022/02/06 08:29:35;;;;;;;0.83;0.10;;;4.60;99.90;;;;;;6186883;23;20012;-85
2022/02/06 08:32:00;;;;;;;3.10;0.60;;;4.60;99.90;;;;;;6161369;23;20005;-86
2022/02/06 08:34:26;;;;;;;3.37;0.40;;;4.60;99.90;;;;;;6157618;23;20040;-86
2022/02/06 08:36:55;;;;;;;0.70;0.30;;;4.60;99.90;;;;;;6187487;23;20028;-86
2022/02/06 08:39:21;;;;;;;2.40;0.50;;;4.70;99.90;;;;;;6186562;23;20005;-86
2022/02/06 08:41:46;;;;;;;1.27;0.30;;;4.70;99.90;;;;;;6161885;23;20059;-85
2022/02/06 08:44:12;;;;;;;3.43;0.60;;;4.70;99.90;;;;;;6188308;23;20001;-87
2022/02/06 08:46:38;;;;;;;1.30;0.20;;;4.80;99.90;;;;;;6186696;23;20013;-86
2022/02/06 08:49:03;;;;;;;2.73;0.30;;;4.90;99.90;;;;;;6160448;23;20055;-86
2022/02/06 08:51:29;;;;;;;2.30;0.20;;;4.90;99.90;;;;;;6163156;23;20001;-87
2022/02/06 08:53:55;;;;;;;1.00;0.30;;;5.10;99.90;;;;;;6187728;23;20017;-88
2022/02/06 08:56:26;;;;;;;2.23;0.30;;;5.10;99.90;;;;;;6165901;23;20563;-87
2022/02/06 08:58:54;;;;;;;0.40;0.10;;;5.20;99.90;;;;;;6187681;23;19997;-86
2022/02/06 09:01:21;;;;;;;2.33;0.70;;;5.20;99.90;;;;;;6166727;23;20009;-88
2022/02/06 09:03:48;;;;;;;1.60;0.20;;;5.30;99.90;;;;;;6169789;23;20005;-87
2022/02/06 09:06:15;;;;;;;2.30;0.40;;;5.30;99.90;;;;;;6171804;23;20628;-88
2022/02/06 09:08:42;;;;;;;1.33;0.30;;;5.50;99.90;;;;;;6186929;23;20453;-87
2022/02/06 09:11:09;;;;;;;2.67;0.30;;;5.40;99.90;;;;;;6189678;23;20491;-87
2022/02/06 09:13:35;;;;;;;1.60;0.30;;;5.50;99.90;;;;;;6191215;23;20044;-87
2022/02/06 09:16:02;;;;;;;0.90;0.37;;;5.60;99.90;;;;;;6192973;23;20016;-87
2022/02/06 09:18:28;;;;;;;1.07;0.20;;;5.50;99.90;;;;;;6161056;23;20016;-86
2022/02/06 09:20:59;;;;;;;2.13;0.30;;;5.50;99.90;;;;;;6195887;23;19997;-87
2022/02/06 09:23:25;;;;;;;1.13;0.30;;;5.40;99.90;;;;;;6195043;23;20021;-86
2022/02/06 09:25:51;;;;;;;1.70;0.30;;;5.40;99.90;;;;;;6199248;23;20004;-86
2022/02/06 09:28:17;;;;;;;1.20;0.27;;;5.50;99.90;;;;;;6194251;23;20005;-87
2022/02/06 09:30:42;;;;;;;1.20;0.30;;;5.50;99.90;;;;;;6172411;23;20005;-87
2022/02/06 09:35:38;;;;;;;0.73;0.10;;;5.50;99.90;;;;;;6198024;23;20081;-87
2022/02/06 09:38:06;;;;;;;4.30;0.30;;;5.50;99.90;;;;;;6197330;23;20004;-87
2022/02/06 09:40:37;;;;;;;0.60;0.20;;;5.60;99.90;;;;;;6168640;23;20009;-86
2022/02/06 09:43:13;;;;;;;2.78;0.25;;;5.60;99.90;;;;;;6164965;23;20001;-86
2022/02/06 09:45:48;;;;;;;2.33;0.20;;;5.60;99.90;;;;;;6187467;23;19997;-84
2022/02/06 09:48:15;;;;;;;1.90;0.40;;;5.60;99.90;;;;;;6187825;23;20116;-85
2022/02/06 09:50:45;;;;;;;2.77;0.33;;;5.70;99.90;;;;;;6186977;23;20021;-84
2022/02/06 09:53:11;;;;;;;0.50;0.17;;;5.70;99.90;;;;;;6188451;23;20052;-85
2022/02/06 09:55:39;;;;;;;3.33;0.43;;;5.80;99.90;;;;;;6192383;23;20013;-85
2022/02/06 10:00:45;;;;;;;1.63;0.33;;;5.80;99.90;;;;;;6200369;23;20036;-87
2022/02/06 10:03:12;;;;;;;1.30;0.43;;;5.80;99.90;;;;;;6164117;23;20001;-87
2022/02/06 10:05:45;;;;;;;1.13;0.20;;;5.80;99.90;;;;;;6189352;23;20005;-86
2022/02/06 10:08:38;;;;;;;1.07;0.30;;;5.90;99.90;;;;;;6192006;23;20021;-86
2022/02/06 10:11:14;;;;;;;2.33;0.47;;;5.90;99.90;;;;;;6173478;23;20447;-84
2022/02/06 10:13:41;;;;;;;0.50;0.23;;;5.90;99.90;;;;;;6176264;23;20005;-86
2022/02/06 10:16:11;;;;;;;1.57;0.50;;;6.00;99.90;;;;;;6196728;23;20447;-82
2022/02/06 10:18:38;;;;;;;0.43;0.20;;;6.00;99.90;;;;;;6199110;23;20001;-84
2022/02/06 10:21:06;;;;;;;1.27;0.10;;;6.00;99.90;;;;;;6203117;23;20039;-85
2022/02/06 10:23:50;;;;;;;0.70;0.57;;;6.00;99.90;;;;;;6190275;23;20075;-84
2022/02/06 10:26:41;;;;;;;1.43;0.27;;;5.90;99.90;;;;;;6159305;23;20347;-83
2022/02/06 10:32:02;;;;;;;1.20;0.10;;;5.90;99.90;;;;;;6195495;23;20006;-85
2022/02/06 10:34:31;;;;;;;1.23;0.20;;;6.00;99.90;;;;;;6186219;23;20006;-84
2022/02/06 10:37:15;;;;;;;1.90;0.33;;;6.00;99.90;;;;;;6184764;23;20709;-85
2022/02/06 10:40:05;;;;;;;1.13;0.10;;;6.00;99.90;;;;;;6191753;23;20032;-84
2022/02/06 10:46:47;;;;;;;0.97;0.83;;;6.00;99.90;;;;;;6185137;23;20009;-88
2022/02/06 10:56:42;;;;;;;0.70;0.00;;;6.00;99.90;;;;;;6099029;23;20636;-89
2022/02/06 11:00:04;;;;;;;;;;;;;;;;;;;;;
2022/02/06 11:02:59;;;;;;;1.17;0.10;;;6.20;99.90;;;;;;6059732;23;20033;-88
2022/02/06 11:05:30;;;;;;;1.03;0.20;;;6.20;99.90;;;;;;6185411;23;20005;-88
2022/02/06 11:08:03;;;;;;;1.80;0.60;;;6.40;99.90;;;;;;6159796;23;20005;-89
2022/02/06 11:10:44;;;;;;;0.50;0.10;;;6.30;99.90;;;;;;6187353;23;20610;-88
2022/02/06 11:13:19;;;;;;;0.87;0.27;;;6.40;99.90;;;;;;6161598;23;20012;-89
2022/02/06 11:15:45;;;;;;;3.03;0.30;;;6.40;99.90;;;;;;6186332;23;20020;-88
2022/02/06 11:18:23;;;;;;;4.23;0.77;;;6.30;99.90;;;;;;6186025;23;20064;-89
2022/02/06 11:20:57;;;;;;;0.77;0.30;;;6.40;99.90;;;;;;6160153;23;20005;-88
2022/02/06 11:23:39;;;;;;;0.43;0.00;;;6.40;99.90;;;;;;6160467;23;19998;-89
2022/02/06 11:26:17;;;;;;;2.23;0.13;;;6.50;99.90;;;;;;6159367;23;20031;-85
2022/02/06 11:28:43;;;;;;;1.90;0.20;;;6.50;99.90;;;;;;6158658;23;20399;-88
2022/02/06 11:31:13;;;;;;;0.53;0.20;;;6.50;99.90;;;;;;6159694;23;20392;-89
2022/02/06 11:33:38;;;;;;;0.33;0.10;;;6.60;99.90;;;;;;6160854;23;20029;-88
2022/02/06 11:36:14;;;;;;;1.40;0.10;;;6.50;99.90;;;;;;6160468;23;20079;-88
2022/02/06 11:44:52;;;;;;;0.83;0.40;;;6.50;99.90;;;;;;6185157;23;20148;-89
2022/02/06 11:47:22;;;;;;;5.05;0.10;;;6.50;99.90;;;;;;6158202;23;20036;-86
2022/02/06 11:50:07;;;;;;;0.97;0.23;;;6.60;99.90;;;;;;6157893;23;20016;-86
2022/02/06 11:53:03;;;;;;;0.50;0.20;;;6.60;99.90;;;;;;6159405;23;20009;-87
2022/02/06 11:55:48;;;;;;;2.23;0.30;;;6.70;99.90;;;;;;6156880;23;20024;-88
2022/02/06 11:58:43;;;;;;;0.80;0.20;;;6.60;99.90;;;;;;6159110;23;20016;-88
2022/02/06 12:01:12;;;;;;;1.40;0.17;;;6.70;99.90;;;;;;6182775;23;20435;-89
2022/02/06 12:03:50;;;;;;;0.73;0.10;;;6.70;99.90;;;;;;6158491;23;20016;-85
2022/02/06 12:06:18;;;;;;;1.87;0.33;;;6.70;99.90;;;;;;6181457;23;20439;-86
2022/02/06 12:09:03;;;;;;;1.90;0.10;;;6.70;99.90;;;;;;6183061;23;20077;-86
2022/02/06 12:11:32;;;;;;;2.43;0.10;;;6.70;99.90;;;;;;6190673;23;20004;-90
2022/02/06 12:14:19;;;;;;;1.67;0.30;;;6.70;99.90;;;;;;6163955;23;20001;-88
2022/02/06 12:17:07;;;;;;;2.30;0.27;;;6.70;99.90;;;;;;6164441;23;20001;-88
2022/02/06 12:19:35;;;;;;;0.40;0.00;;;6.70;99.90;;;;;;6163804;23;20064;-88
2022/02/06 12:22:26;;;;;;;0.77;0.17;;;6.60;99.90;;;;;;6165392;23;20007;-86
2022/02/06 12:25:20;;;;;;;1.27;0.23;;;6.70;99.90;;;;;;6190675;23;20002;-86
2022/02/06 12:27:52;;;;;;;1.07;0.10;;;6.70;99.90;;;;;;6193741;23;20009;-88
2022/02/06 12:30:22;;;;;;;;;;;6.70;99.90;;;;;;6167287;23;20044;-85
2022/02/06 12:32:48;;;;;;;0.80;0.20;;;6.70;99.90;;;;;;6165339;23;19946;-86
2022/02/06 12:38:01;;;;;;;0.40;0.10;;;6.70;99.90;;;;;;6190400;23;20005;-90
2022/02/06 12:40:28;;;;;;;1.67;0.17;;;6.60;99.90;;;;;;6162517;23;20395;-90
2022/02/06 12:43:01;;;;;;;0.97;0.10;;;6.70;99.90;;;;;;6162342;23;20009;-87
2022/02/06 12:45:30;;;;;;;0.73;0.10;;;6.70;99.90;;;;;;6161236;23;20087;-89
2022/02/06 12:48:02;;;;;;;0.87;0.30;;;6.80;99.90;;;;;;6187057;23;20028;-87
2022/02/06 12:50:30;;;;;;;;;;;6.80;99.90;;;;;;6160236;23;20009;-86
2022/02/06 12:52:56;;;;;;;2.57;0.20;;;6.90;99.90;;;;;;6160285;23;20234;-86
2022/02/06 12:55:34;;;;;;;0.50;0.13;;;6.90;99.90;;;;;;6159425;23;20005;-88
2022/02/06 12:58:01;;;;;;;5.27;0.30;;;6.90;99.90;;;;;;6187138;23;19998;-85
2022/02/06 13:00:32;;;;;;;1.33;0.27;;;6.90;99.90;;;;;;6187142;23;20048;-86
2022/02/06 13:03:19;;;;;;;0.10;0.07;;;6.80;99.90;;;;;;6160749;23;20086;-89
2022/02/06 13:06:05;;;;;;;0.67;0.20;;;6.80;99.90;;;;;;6158438;23;20059;-88
2022/02/06 13:08:36;;;;;;;0.40;0.10;;;6.80;99.90;;;;;;6160804;23;20001;-87
2022/02/06 13:11:08;;;;;;;0.40;0.10;;;6.80;99.90;;;;;;6156494;23;20064;-86
2022/02/06 13:13:45;;;;;;;;;;;6.70;99.90;;;;;;6188342;23;20408;-87
2022/02/06 13:19:11;;;;;;;0.23;0.10;;;6.60;99.90;;;;;;6197941;23;20044;-88
2022/02/06 13:24:25;;;;;;;3.83;0.20;;;6.60;99.90;;;;;;6197528;23;20005;-87
2022/02/06 13:27:36;;;;;;;0.10;0.10;;;6.60;99.90;;;;;;6174267;23;20102;-91
2022/02/06 13:29:58;;;;;;;0.40;0.10;;;6.50;99.90;;;;;;6215649;23;20147;-87
2022/02/06 13:33:15;;;;;;;0.40;0.10;;;6.40;99.90;;;;;;6214990;23;20327;-90
2022/02/06 13:35:35;;;;;;;2.53;0.30;;;6.40;99.90;;;;;;6211173;23;20057;-88
2022/02/06 13:38:11;;;;;;;0.20;0.10;;;6.40;99.90;;;;;;6215207;23;20442;-89
2022/02/06 13:40:50;;;;;;;0.47;0.27;;;6.40;99.90;;;;;;6214576;23;20016;-88
2022/02/06 13:43:21;;;;;;;0.30;0.00;;;6.40;99.90;;;;;;6215183;23;20051;-87
2022/02/06 13:45:55;;;;;;;0.10;0.00;;;6.30;99.90;;;;;;6216249;23;20001;-90
2022/02/06 13:48:23;;;;;;;0.00;0.00;;;6.30;99.90;;;;;;6214391;23;20001;-88
2022/02/06 13:50:58;;;;;;;0.27;0.13;;;6.30;99.90;;;;;;6216232;23;20059;-91
2022/02/06 13:53:26;;;;;;;0.53;0.10;;;6.30;99.90;;;;;;6212684;23;20116;-86
2022/02/06 13:56:12;;;;;;;0.30;0.00;;;6.30;99.90;;;;;;6212558;23;20053;-90
2022/02/06 13:58:40;;;;;;;1.20;0.17;;;6.20;99.90;;;;;;6217734;23;20000;-88
2022/02/06 14:01:08;;;;;;;0.40;0.20;;;6.30;99.90;;;;;;6218032;23;20076;-90
2022/02/06 14:03:55;;;;;;;0.40;0.10;;;6.10;99.90;;;;;;6214822;23;20027;-89
2022/02/06 14:06:36;;;;;;;0.57;0.23;;;6.10;99.90;;;;;;6215892;23;20001;-90
2022/02/06 14:09:10;;;;;;;5.37;0.23;;;6.10;99.90;;;;;;6216370;23;20004;-89
2022/02/06 14:12:16;;;;;;;0.10;0.00;;;6.00;99.90;;;;;;6213896;23;20000;-90
2022/02/06 14:14:57;;;;;;;1.30;0.10;;;6.00;99.90;;;;;;6214685;23;20386;-86
2022/02/06 14:17:35;;;;;;;1.10;0.10;;;5.90;99.90;;;;;;6216350;23;20008;-85
2022/02/06 14:20:12;;;;;;;0.30;0.10;;;5.80;99.90;;;;;;6213682;23;20011;-88
2022/02/06 14:22:44;;;;;;;0.13;0.10;;;5.80;99.90;;;;;;6213731;23;20004;-90
2022/02/06 14:25:22;;;;;;;0.05;0.00;;;5.70;99.90;;;;;;6214448;23;20039;-89
2022/02/06 14:27:48;;;;;;;0.10;0.00;;;5.70;99.90;;;;;;6193531;23;20068;-86
2022/02/06 14:30:18;;;;;;;0.20;0.10;;;5.70;99.90;;;;;;6185307;23;20013;-87
2022/02/06 14:33:05;;;;;;;2.13;0.30;;;5.70;99.90;;;;;;6160033;23;20009;-89
2022/02/06 14:35:38;;;;;;;0.83;0.10;;;5.60;99.90;;;;;;6187996;23;19997;-90
2022/02/06 14:38:35;;;;;;;0.70;0.10;;;5.50;99.90;;;;;;6173654;23;20031;-85
2022/02/06 14:41:19;;;;;;;0.03;0.00;;;5.60;99.90;;;;;;6272326;22;20004;-86
2022/02/06 14:44:02;;;;;;;0.10;0.00;;;5.50;99.90;;;;;;6246312;22;20036;-86
2022/02/06 14:46:33;;;;;;;0.63;0.00;;;5.50;99.90;;;;;;6272673;22;20338;-87
2022/02/06 14:49:02;;;;;;;0.40;0.10;;;5.40;99.90;;;;;;6271015;22;20138;-89
2022/02/06 14:51:31;;;;;;;0.00;0.00;;;5.40;99.90;;;;;;6245179;23;20011;-87
2022/02/06 14:54:00;;;;;;;0.00;0.00;;;5.40;99.90;;;;;;6248776;22;20007;-85
2022/02/06 14:56:39;;;;;;;0.10;0.00;;;5.40;99.90;;;;;;6245755;23;20142;-87
2022/02/06 14:59:05;;;;;;;0.10;0.10;;;5.30;99.90;;;;;;6246278;23;20008;-87
2022/02/06 15:01:58;;;;;;;0.70;0.20;;;5.20;99.90;;;;;;6249504;23;20032;-86
2022/02/06 15:04:31;;;;;;;0.23;0.10;;;5.20;99.90;;;;;;6237132;23;20032;-86
2022/02/06 15:07:03;;;;;;;0.97;0.20;;;5.20;99.90;;;;;;6245527;22;20008;-90
2022/02/06 15:09:35;;;;;;;0.10;0.10;;;5.10;99.90;;;;;;6255105;23;20477;-85
2022/02/06 15:12:10;;;;;;;0.00;0.00;;;5.10;99.90;;;;;;6258535;23;20442;-88
2022/02/06 15:14:40;;;;;;;0.27;0.10;;;5.10;99.90;;;;;;6257323;23;20069;-87
2022/02/06 15:17:10;;;;;;;0.30;0.10;;;5.10;99.90;;;;;;6257779;23;20035;-86
2022/02/06 15:20:14;;;;;;;0.53;0.10;;;5.10;99.90;;;;;;6249806;23;20008;-90
2022/02/06 15:22:43;;;;;;;0.00;0.00;;;5.00;99.90;;;;;;6249019;23;20056;-86
2022/02/06 15:25:09;;;;;;;0.10;0.10;;;5.00;99.90;;;;;;6249425;23;20004;-87
2022/02/06 15:27:38;;;;;;;0.80;0.03;;;4.90;99.90;;;;;;6250559;23;20004;-85
2022/02/06 15:30:31;;;;;;;0.20;0.10;;;4.90;99.90;;;;;;6255545;23;20000;-88
2022/02/06 15:33:04;;;;;;;0.15;0.00;;;4.80;99.90;;;;;;6249900;23;20690;-89
2022/02/06 15:35:31;;;;;;;0.20;0.10;;;4.80;99.90;;;;;;6247853;23;20004;-85
2022/02/06 15:38:31;;;;;;;0.00;0.00;;;4.90;99.90;;;;;;6247478;22;20008;-87
2022/02/06 15:45:01;;;;;;;0.20;0.10;;;4.90;99.90;;;;;;6223022;23;20023;-89
2022/02/06 15:47:34;;;;;;;0.17;0.10;;;4.80;99.90;;;;;;6141742;23;20234;-87
2022/02/06 15:50:05;;;;;;;0.50;0.00;;;4.80;99.90;;;;;;6223436;23;20004;-88
2022/02/06 15:53:06;;;;;;;1.30;0.37;;;4.70;99.90;;;;;;6203544;23;20051;-92
2022/02/06 15:55:37;;;;;;;0.53;0.07;;;4.70;99.90;;;;;;6232319;23;20079;-87
2022/02/06 15:58:07;;;;;;;0.25;0.00;;;4.70;99.90;;;;;;6206533;23;20105;-90
2022/02/06 16:00:45;;;;;;;0.00;0.00;;;4.80;99.90;;;;;;6201382;23;20004;-91
2022/02/06 16:03:17;;;;;;;0.00;0.00;;;4.80;99.90;;;;;;6191088;23;20032;-87
2022/02/06 16:05:42;;;;;;;0.40;0.03;;;4.70;99.90;;;;;;6196579;23;20008;-89
2022/02/06 16:08:11;;;;;;;0.30;0.00;;;4.70;99.90;;;;;;6199316;23;20001;-91
2022/02/06 16:10:49;;;;;;;0.10;0.00;;;4.80;99.90;;;;;;6189612;23;20087;-88